sensor_id;sensor_type;location;lat;lon;timestamp;pressure;altitude;pressure_sealevel;temperature;humidity
76827;BME280;65788;52.284;20.890;2023-10-13T00:00:41;100448.72;;;19.15;55.21
76827;BME280;65788;52.284;20.890;2023-10-13T00:03:29;100451.20;;;19.13;55.25
76827;BME280;65788;52.284;20.890;2023-10-13T00:05:58;100452.83;;;19.12;55.21
76827;BME280;65788;52.284;20.890;2023-10-13T00:08:31;100452.98;;;19.13;55.13
76827;BME280;65788;52.284;20.890;2023-10-13T00:10:58;100454.98;;;19.13;55.16
76827;BME280;65788;52.284;20.890;2023-10-13T00:13:33;100457.02;;;19.10;55.23
76827;BME280;65788;52.284;20.890;2023-10-13T00:16:23;100457.14;;;19.11;55.05
76827;BME280;65788;52.284;20.890;2023-10-13T00:18:54;100458.04;;;19.11;55.14
76827;BME280;65788;52.284;20.890;2023-10-13T00:21:25;100453.45;;;19.10;55.14
76827;BME280;65788;52.284;20.890;2023-10-13T00:23:59;100457.67;;;19.08;54.99
76827;BME280;65788;52.284;20.890;2023-10-13T00:26:29;100456.98;;;19.09;55.04
76827;BME280;65788;52.284;20.890;2023-10-13T00:28:58;100460.39;;;19.09;55.02
76827;BME280;65788;52.284;20.890;2023-10-13T00:31:34;100460.95;;;19.07;55.00
76827;BME280;65788;52.284;20.890;2023-10-13T00:34:03;100456.52;;;19.07;55.03
76827;BME280;65788;52.284;20.890;2023-10-13T00:36:40;100457.97;;;19.06;54.88
76827;BME280;65788;52.284;20.890;2023-10-13T00:39:27;100459.67;;;19.05;54.90
76827;BME280;65788;52.284;20.890;2023-10-13T00:41:55;100468.55;;;19.05;54.87
76827;BME280;65788;52.284;20.890;2023-10-13T00:44:34;100469.06;;;19.06;54.84
76827;BME280;65788;52.284;20.890;2023-10-13T00:47:17;100476.59;;;19.05;54.79
76827;BME280;65788;52.284;20.890;2023-10-13T00:50:11;100476.02;;;19.03;54.74
76827;BME280;65788;52.284;20.890;2023-10-13T00:52:42;100476.55;;;19.01;54.93
76827;BME280;65788;52.284;20.890;2023-10-13T00:55:15;100480.05;;;19.01;54.83
76827;BME280;65788;52.284;20.890;2023-10-13T00:57:44;100480.73;;;19.02;54.85
76827;BME280;65788;52.284;20.890;2023-10-13T01:00:14;100476.08;;;19.01;54.98
76827;BME280;65788;52.284;20.890;2023-10-13T01:02:56;100478.34;;;19.00;54.94
76827;BME280;65788;52.284;20.890;2023-10-13T01:05:25;100481.33;;;19.01;54.83
76827;BME280;65788;52.284;20.890;2023-10-13T01:07:54;100478.64;;;19.00;54.74
76827;BME280;65788;52.284;20.890;2023-10-13T01:10:22;100474.80;;;18.98;54.86
76827;BME280;65788;52.284;20.890;2023-10-13T01:12:55;100479.36;;;18.97;54.80
76827;BME280;65788;52.284;20.890;2023-10-13T01:15:22;100480.44;;;18.99;54.77
76827;BME280;65788;52.284;20.890;2023-10-13T01:17:49;100482.15;;;18.97;54.76
76827;BME280;65788;52.284;20.890;2023-10-13T01:20:17;100485.13;;;18.97;54.74
76827;BME280;65788;52.284;20.890;2023-10-13T01:22:53;100480.62;;;18.96;54.81
76827;BME280;65788;52.284;20.890;2023-10-13T01:25:23;100482.75;;;18.95;54.75
76827;BME280;65788;52.284;20.890;2023-10-13T01:27:56;100479.49;;;18.95;54.75
76827;BME280;65788;52.284;20.890;2023-10-13T01:30:23;100482.23;;;18.95;54.66
76827;BME280;65788;52.284;20.890;2023-10-13T01:32:53;100487.75;;;18.93;54.82
76827;BME280;65788;52.284;20.890;2023-10-13T01:35:21;100485.54;;;18.93;54.68
76827;BME280;65788;52.284;20.890;2023-10-13T01:37:54;100488.25;;;18.93;54.64
76827;BME280;65788;52.284;20.890;2023-10-13T01:40:21;100493.81;;;18.92;54.64
76827;BME280;65788;52.284;20.890;2023-10-13T01:42:57;100493.94;;;18.91;54.64
76827;BME280;65788;52.284;20.890;2023-10-13T01:45:24;100497.74;;;18.91;54.54
76827;BME280;65788;52.284;20.890;2023-10-13T01:47:57;100497.65;;;18.89;54.56
76827;BME280;65788;52.284;20.890;2023-10-13T01:50:26;100496.42;;;18.90;54.48
76827;BME280;65788;52.284;20.890;2023-10-13T01:52:57;100496.57;;;18.89;54.42
76827;BME280;65788;52.284;20.890;2023-10-13T01:55:40;100493.96;;;18.88;54.44
76827;BME280;65788;52.284;20.890;2023-10-13T01:58:11;100486.67;;;18.87;54.42
76827;BME280;65788;52.284;20.890;2023-10-13T02:00:43;100479.33;;;18.87;54.35
76827;BME280;65788;52.284;20.890;2023-10-13T02:03:12;100476.72;;;18.87;54.34
76827;BME280;65788;52.284;20.890;2023-10-13T02:05:48;100475.70;;;18.86;54.41
76827;BME280;65788;52.284;20.890;2023-10-13T02:08:16;100472.55;;;18.85;54.33
76827;BME280;65788;52.284;20.890;2023-10-13T02:10:55;100476.77;;;18.84;54.39
76827;BME280;65788;52.284;20.890;2023-10-13T02:13:24;100475.95;;;18.84;54.27
76827;BME280;65788;52.284;20.890;2023-10-13T02:15:54;100483.34;;;18.84;54.36
76827;BME280;65788;52.284;20.890;2023-10-13T02:18:30;100489.13;;;18.84;54.23
76827;BME280;65788;52.284;20.890;2023-10-13T02:21:11;100487.11;;;18.83;54.16
76827;BME280;65788;52.284;20.890;2023-10-13T02:23:41;100484.37;;;18.81;54.23
76827;BME280;65788;52.284;20.890;2023-10-13T02:26:13;100485.64;;;18.83;54.25
76827;BME280;65788;52.284;20.890;2023-10-13T02:28:59;100493.89;;;18.82;54.08
76827;BME280;65788;52.284;20.890;2023-10-13T02:31:29;100493.77;;;18.82;54.01
76827;BME280;65788;52.284;20.890;2023-10-13T02:33:57;100489.23;;;18.81;54.10
76827;BME280;65788;52.284;20.890;2023-10-13T02:36:26;100489.95;;;18.81;54.04
76827;BME280;65788;52.284;20.890;2023-10-13T02:39:16;100487.06;;;18.79;54.04
76827;BME280;65788;52.284;20.890;2023-10-13T02:41:43;100496.11;;;18.78;54.03
76827;BME280;65788;52.284;20.890;2023-10-13T02:44:16;100494.20;;;18.79;54.09
76827;BME280;65788;52.284;20.890;2023-10-13T02:46:55;100491.46;;;18.78;53.87
76827;BME280;65788;52.284;20.890;2023-10-13T02:49:24;100491.59;;;18.76;53.95
76827;BME280;65788;52.284;20.890;2023-10-13T02:51:54;100490.52;;;18.77;53.93
76827;BME280;65788;52.284;20.890;2023-10-13T02:54:22;100489.98;;;18.75;53.86
76827;BME280;65788;52.284;20.890;2023-10-13T02:56:58;100490.70;;;18.77;53.90
76827;BME280;65788;52.284;20.890;2023-10-13T02:59:26;100490.65;;;18.76;53.78
76827;BME280;65788;52.284;20.890;2023-10-13T03:02:15;100489.45;;;18.75;53.98
76827;BME280;65788;52.284;20.890;2023-10-13T03:04:58;100487.80;;;18.75;53.77
76827;BME280;65788;52.284;20.890;2023-10-13T03:07:36;100491.38;;;18.76;53.68
76827;BME280;65788;52.284;20.890;2023-10-13T03:10:04;100490.52;;;18.75;53.57
76827;BME280;65788;52.284;20.890;2023-10-13T03:12:40;100481.52;;;18.75;53.43
76827;BME280;65788;52.284;20.890;2023-10-13T03:15:08;100477.05;;;18.78;53.37
76827;BME280;65788;52.284;20.890;2023-10-13T03:17:43;100477.20;;;18.80;53.25
76827;BME280;65788;52.284;20.890;2023-10-13T03:20:11;100479.02;;;18.74;53.56
76827;BME280;65788;52.284;20.890;2023-10-13T03:22:43;100476.51;;;18.71;53.72
76827;BME280;65788;52.284;20.890;2023-10-13T03:25:14;100474.72;;;18.69;53.77
76827;BME280;65788;52.284;20.890;2023-10-13T03:27:58;100479.36;;;18.69;53.78
76827;BME280;65788;52.284;20.890;2023-10-13T03:30:25;100473.69;;;18.69;53.89
76827;BME280;65788;52.284;20.890;2023-10-13T03:33:10;100467.59;;;18.67;53.85
76827;BME280;65788;52.284;20.890;2023-10-13T03:35:39;100473.05;;;18.69;53.79
76827;BME280;65788;52.284;20.890;2023-10-13T03:38:10;100480.64;;;18.68;53.74
76827;BME280;65788;52.284;20.890;2023-10-13T03:40:50;100480.22;;;18.67;53.65
76827;BME280;65788;52.284;20.890;2023-10-13T03:43:25;100490.33;;;18.67;53.71
76827;BME280;65788;52.284;20.890;2023-10-13T03:45:52;100490.14;;;18.67;53.77
76827;BME280;65788;52.284;20.890;2023-10-13T03:48:28;100488.40;;;18.66;53.78
76827;BME280;65788;52.284;20.890;2023-10-13T03:53:45;100476.73;;;18.66;53.94
76827;BME280;65788;52.284;20.890;2023-10-13T03:56:24;100471.60;;;18.69;53.81
76827;BME280;65788;52.284;20.890;2023-10-13T03:58:56;100483.37;;;18.72;53.76
76827;BME280;65788;52.284;20.890;2023-10-13T04:01:37;100490.27;;;18.76;53.52
76827;BME280;65788;52.284;20.890;2023-10-13T04:04:14;100495.23;;;18.84;53.28
76827;BME280;65788;52.284;20.890;2023-10-13T04:07:05;100499.02;;;18.92;53.24
76827;BME280;65788;52.284;20.890;2023-10-13T04:09:36;100500.83;;;18.99;53.02
76827;BME280;65788;52.284;20.890;2023-10-13T04:12:05;100506.05;;;19.07;52.76
76827;BME280;65788;52.284;20.890;2023-10-13T04:14:35;100500.45;;;19.13;52.66
76827;BME280;65788;52.284;20.890;2023-10-13T04:17:24;100492.59;;;19.17;52.59
76827;BME280;65788;52.284;20.890;2023-10-13T04:19:55;100488.25;;;19.22;52.40
76827;BME280;65788;52.284;20.890;2023-10-13T04:25:23;100481.83;;;19.29;52.27
76827;BME280;65788;52.284;20.890;2023-10-13T04:28:14;100483.29;;;19.33;52.16
76827;BME280;65788;52.284;20.890;2023-10-13T04:30:47;100482.33;;;19.38;52.01
76827;BME280;65788;52.284;20.890;2023-10-13T04:33:31;100480.66;;;19.40;52.01
76827;BME280;65788;52.284;20.890;2023-10-13T04:36:13;100485.13;;;19.43;52.02
76827;BME280;65788;52.284;20.890;2023-10-13T04:38:50;100486.16;;;19.45;51.70
76827;BME280;65788;52.284;20.890;2023-10-13T04:41:29;100484.56;;;19.47;51.65
76827;BME280;65788;52.284;20.890;2023-10-13T04:44:17;100492.87;;;19.49;51.63
76827;BME280;65788;52.284;20.890;2023-10-13T04:47:04;100488.38;;;19.54;51.44
76827;BME280;65788;52.284;20.890;2023-10-13T04:49:31;100489.26;;;19.55;51.38
76827;BME280;65788;52.284;20.890;2023-10-13T04:52:05;100486.23;;;19.56;51.41
76827;BME280;65788;52.284;20.890;2023-10-13T04:54:41;100484.41;;;19.58;51.32
76827;BME280;65788;52.284;20.890;2023-10-13T04:57:12;100482.18;;;19.61;51.34
76827;BME280;65788;52.284;20.890;2023-10-13T05:00:00;100479.30;;;19.61;51.44
76827;BME280;65788;52.284;20.890;2023-10-13T05:02:42;100477.98;;;19.63;51.30
76827;BME280;65788;52.284;20.890;2023-10-13T05:05:31;100483.85;;;19.65;51.25
76827;BME280;65788;52.284;20.890;2023-10-13T05:08:14;100481.11;;;19.68;51.24
76827;BME280;65788;52.284;20.890;2023-10-13T05:11:05;100484.09;;;19.69;51.28
76827;BME280;65788;52.284;20.890;2023-10-13T05:13:52;100488.73;;;19.71;51.27
76827;BME280;65788;52.284;20.890;2023-10-13T05:16:38;100486.94;;;19.72;51.13
76827;BME280;65788;52.284;20.890;2023-10-13T05:19:25;100494.83;;;19.76;51.17
76827;BME280;65788;52.284;20.890;2023-10-13T05:22:12;100508.05;;;19.78;51.25
76827;BME280;65788;52.284;20.890;2023-10-13T05:24:58;100516.43;;;19.81;51.15
76827;BME280;65788;52.284;20.890;2023-10-13T05:27:45;100514.81;;;19.81;51.06
76827;BME280;65788;52.284;20.890;2023-10-13T05:30:32;100517.16;;;19.83;50.98
76827;BME280;65788;52.284;20.890;2023-10-13T05:33:18;100521.13;;;19.85;50.91
76827;BME280;65788;52.284;20.890;2023-10-13T05:36:10;100518.06;;;19.87;50.84
76827;BME280;65788;52.284;20.890;2023-10-13T05:38:57;100520.32;;;19.89;50.89
76827;BME280;65788;52.284;20.890;2023-10-13T05:41:44;100520.58;;;19.90;50.89
76827;BME280;65788;52.284;20.890;2023-10-13T05:44:30;100517.31;;;19.87;51.00
76827;BME280;65788;52.284;20.890;2023-10-13T05:47:07;100522.64;;;19.87;50.96
76827;BME280;65788;52.284;20.890;2023-10-13T05:49:54;100518.72;;;19.85;51.13
76827;BME280;65788;52.284;20.890;2023-10-13T05:52:33;100516.03;;;19.85;51.06
76827;BME280;65788;52.284;20.890;2023-10-13T05:55:19;100517.67;;;19.82;51.13
76827;BME280;65788;52.284;20.890;2023-10-13T05:58:06;100531.93;;;19.80;51.26
76827;BME280;65788;52.284;20.890;2023-10-13T06:00:53;100544.27;;;19.81;51.23
76827;BME280;65788;52.284;20.890;2023-10-13T06:03:41;100549.02;;;19.78;51.31
76827;BME280;65788;52.284;20.890;2023-10-13T06:06:28;100546.57;;;19.73;51.43
76827;BME280;65788;52.284;20.890;2023-10-13T06:09:15;100544.69;;;19.72;51.47
76827;BME280;65788;52.284;20.890;2023-10-13T06:12:03;100546.75;;;19.71;51.39
76827;BME280;65788;52.284;20.890;2023-10-13T06:14:50;100557.73;;;19.72;51.25
76827;BME280;65788;52.284;20.890;2023-10-13T06:17:36;100560.98;;;19.68;51.35
76827;BME280;65788;52.284;20.890;2023-10-13T06:20:25;100564.12;;;19.66;51.40
76827;BME280;65788;52.284;20.890;2023-10-13T06:23:12;100568.44;;;19.63;51.40
76827;BME280;65788;52.284;20.890;2023-10-13T06:25:59;100574.30;;;19.62;51.45
76827;BME280;65788;52.284;20.890;2023-10-13T06:28:45;100576.81;;;19.62;51.56
76827;BME280;65788;52.284;20.890;2023-10-13T06:31:16;100568.66;;;19.59;51.67
76827;BME280;65788;52.284;20.890;2023-10-13T06:33:49;100569.02;;;19.59;51.88
76827;BME280;65788;52.284;20.890;2023-10-13T06:36:16;100568.80;;;19.56;51.78
76827;BME280;65788;52.284;20.890;2023-10-13T06:38:44;100563.77;;;19.54;52.82
76827;BME280;65788;52.284;20.890;2023-10-13T06:41:13;100563.77;;;19.57;52.88
76827;BME280;65788;52.284;20.890;2023-10-13T06:43:58;100559.14;;;19.61;52.67
76827;BME280;65788;52.284;20.890;2023-10-13T06:46:28;100554.27;;;19.60;52.64
76827;BME280;65788;52.284;20.890;2023-10-13T06:48:56;100557.13;;;19.59;52.64
76827;BME280;65788;52.284;20.890;2023-10-13T06:51:26;100559.35;;;19.63;52.43
76827;BME280;65788;52.284;20.890;2023-10-13T06:53:59;100559.54;;;19.66;52.28
76827;BME280;65788;52.284;20.890;2023-10-13T06:56:27;100560.80;;;19.62;52.51
76827;BME280;65788;52.284;20.890;2023-10-13T06:58:57;100565.63;;;19.62;52.65
76827;BME280;65788;52.284;20.890;2023-10-13T07:01:29;100566.05;;;19.60;52.36
76827;BME280;65788;52.284;20.890;2023-10-13T07:03:57;100564.50;;;19.61;52.62
76827;BME280;65788;52.284;20.890;2023-10-13T07:06:27;100559.56;;;19.60;52.56
76827;BME280;65788;52.284;20.890;2023-10-13T07:08:55;100556.48;;;19.60;52.60
76827;BME280;65788;52.284;20.890;2023-10-13T07:11:27;100552.60;;;19.60;52.55
76827;BME280;65788;52.284;20.890;2023-10-13T07:14:04;100557.69;;;19.59;52.56
76827;BME280;65788;52.284;20.890;2023-10-13T07:16:43;100559.04;;;19.60;52.44
76827;BME280;65788;52.284;20.890;2023-10-13T07:19:15;100561.58;;;19.59;52.31
76827;BME280;65788;52.284;20.890;2023-10-13T07:21:44;100564.70;;;19.58;52.35
76827;BME280;65788;52.284;20.890;2023-10-13T07:24:13;100566.67;;;19.57;52.52
76827;BME280;65788;52.284;20.890;2023-10-13T07:26:40;100568.33;;;19.59;52.32
76827;BME280;65788;52.284;20.890;2023-10-13T07:29:13;100562.11;;;19.61;52.26
76827;BME280;65788;52.284;20.890;2023-10-13T07:31:41;100563.52;;;19.61;52.09
76827;BME280;65788;52.284;20.890;2023-10-13T07:34:12;100563.50;;;19.62;52.16
76827;BME280;65788;52.284;20.890;2023-10-13T07:36:53;100562.46;;;19.59;52.20
76827;BME280;65788;52.284;20.890;2023-10-13T07:39:28;100562.44;;;19.57;52.10
76827;BME280;65788;52.284;20.890;2023-10-13T07:42:00;100562.46;;;19.54;52.25
76827;BME280;65788;52.284;20.890;2023-10-13T07:44:32;100561.27;;;19.55;52.15
76827;BME280;65788;52.284;20.890;2023-10-13T07:47:14;100560.88;;;19.54;52.28
76827;BME280;65788;52.284;20.890;2023-10-13T07:49:41;100558.23;;;19.54;52.18
76827;BME280;65788;52.284;20.890;2023-10-13T07:52:10;100553.05;;;19.54;52.05
76827;BME280;65788;52.284;20.890;2023-10-13T07:54:48;100543.80;;;19.53;52.10
76827;BME280;65788;52.284;20.890;2023-10-13T07:57:35;100547.77;;;19.52;52.08
76827;BME280;65788;52.284;20.890;2023-10-13T08:00:05;100545.98;;;19.53;52.15
76827;BME280;65788;52.284;20.890;2023-10-13T08:02:43;100541.22;;;19.55;52.11
76827;BME280;65788;52.284;20.890;2023-10-13T08:05:19;100533.20;;;19.57;52.03
76827;BME280;65788;52.284;20.890;2023-10-13T08:08:07;100533.14;;;19.59;51.97
76827;BME280;65788;52.284;20.890;2023-10-13T08:10:43;100531.89;;;19.61;51.93
76827;BME280;65788;52.284;20.890;2023-10-13T08:13:12;100532.65;;;19.61;51.85
76827;BME280;65788;52.284;20.890;2023-10-13T08:15:42;100530.55;;;19.63;51.78
76827;BME280;65788;52.284;20.890;2023-10-13T08:18:18;100529.23;;;19.63;51.71
76827;BME280;65788;52.284;20.890;2023-10-13T08:21:01;100522.95;;;19.63;51.71
76827;BME280;65788;52.284;20.890;2023-10-13T08:23:30;100524.11;;;19.64;51.72
76827;BME280;65788;52.284;20.890;2023-10-13T08:26:24;100519.50;;;19.64;51.52
76827;BME280;65788;52.284;20.890;2023-10-13T08:29:05;100523.68;;;19.63;51.68
76827;BME280;65788;52.284;20.890;2023-10-13T08:31:50;100523.17;;;19.64;51.51
76827;BME280;65788;52.284;20.890;2023-10-13T08:34:38;100524.28;;;19.63;51.72
76827;BME280;65788;52.284;20.890;2023-10-13T08:37:10;100526.13;;;19.60;51.77
76827;BME280;65788;52.284;20.890;2023-10-13T08:39:53;100519.20;;;19.64;51.57
76827;BME280;65788;52.284;20.890;2023-10-13T08:42:35;100519.65;;;19.74;51.34
76827;BME280;65788;52.284;20.890;2023-10-13T08:45:11;100521.76;;;19.83;51.21
76827;BME280;65788;52.284;20.890;2023-10-13T08:48:11;100521.98;;;19.90;50.99
76827;BME280;65788;52.284;20.890;2023-10-13T08:58:49;100517.21;;;20.08;50.65
76827;BME280;65788;52.284;20.890;2023-10-13T09:04:10;100512.47;;;20.13;50.72
76827;BME280;65788;52.284;20.890;2023-10-13T09:09:46;100511.61;;;20.20;50.61
76827;BME280;65788;52.284;20.890;2023-10-13T09:12:23;100505.43;;;20.23;50.51
76827;BME280;65788;52.284;20.890;2023-10-13T09:15:05;100505.98;;;20.24;50.76
76827;BME280;65788;52.284;20.890;2023-10-13T09:17:41;100503.81;;;20.28;50.49
76827;BME280;65788;52.284;20.890;2023-10-13T09:20:16;100502.77;;;20.30;50.47
76827;BME280;65788;52.284;20.890;2023-10-13T09:22:50;100496.34;;;20.32;50.47
76827;BME280;65788;52.284;20.890;2023-10-13T09:25:35;100500.08;;;20.34;50.48
76827;BME280;65788;52.284;20.890;2023-10-13T09:28:13;100499.27;;;20.34;50.40
76827;BME280;65788;52.284;20.890;2023-10-13T09:30:51;100497.67;;;20.36;50.42
76827;BME280;65788;52.284;20.890;2023-10-13T09:33:28;100500.49;;;20.37;50.34
76827;BME280;65788;52.284;20.890;2023-10-13T09:36:08;100496.86;;;20.37;50.49
76827;BME280;65788;52.284;20.890;2023-10-13T09:38:43;100496.10;;;20.36;50.33
76827;BME280;65788;52.284;20.890;2023-10-13T09:41:37;100495.72;;;20.35;50.44
76827;BME280;65788;52.284;20.890;2023-10-13T09:44:06;100494.80;;;20.37;50.46
76827;BME280;65788;52.284;20.890;2023-10-13T09:46:37;100491.86;;;20.37;50.41
76827;BME280;65788;52.284;20.890;2023-10-13T09:49:13;100485.02;;;20.35;50.44
76827;BME280;65788;52.284;20.890;2023-10-13T09:51:52;100472.73;;;20.36;50.52
76827;BME280;65788;52.284;20.890;2023-10-13T09:54:34;100471.16;;;20.35;50.50
76827;BME280;65788;52.284;20.890;2023-10-13T09:57:15;100464.38;;;20.35;50.51
76827;BME280;65788;52.284;20.890;2023-10-13T09:59:57;100467.04;;;20.34;50.55
76827;BME280;65788;52.284;20.890;2023-10-13T10:02:35;100466.92;;;20.36;50.46
76827;BME280;65788;52.284;20.890;2023-10-13T10:05:11;100461.73;;;20.35;50.61
76827;BME280;65788;52.284;20.890;2023-10-13T10:07:59;100458.21;;;20.35;50.45
76827;BME280;65788;52.284;20.890;2023-10-13T10:10:53;100456.41;;;20.35;50.46
76827;BME280;65788;52.284;20.890;2023-10-13T10:13:39;100454.55;;;20.33;50.57
76827;BME280;65788;52.284;20.890;2023-10-13T10:16:11;100450.23;;;20.34;50.61
76827;BME280;65788;52.284;20.890;2023-10-13T10:18:41;100448.94;;;20.34;50.60
76827;BME280;65788;52.284;20.890;2023-10-13T10:21:10;100443.50;;;20.36;50.58
76827;BME280;65788;52.284;20.890;2023-10-13T10:23:38;100435.75;;;20.36;50.51
76827;BME280;65788;52.284;20.890;2023-10-13T10:26:12;100430.64;;;20.35;50.73
76827;BME280;65788;52.284;20.890;2023-10-13T10:28:48;100426.77;;;20.36;50.51
76827;BME280;65788;52.284;20.890;2023-10-13T10:31:15;100426.03;;;20.37;50.53
76827;BME280;65788;52.284;20.890;2023-10-13T10:33:44;100422.34;;;20.40;50.61
76827;BME280;65788;52.284;20.890;2023-10-13T10:36:14;100419.40;;;20.38;50.59
76827;BME280;65788;52.284;20.890;2023-10-13T10:38:53;100419.51;;;20.36;50.66
76827;BME280;65788;52.284;20.890;2023-10-13T10:41:28;100417.88;;;20.37;50.60
76827;BME280;65788;52.284;20.890;2023-10-13T10:44:15;100412.77;;;20.38;50.74
76827;BME280;65788;52.284;20.890;2023-10-13T10:46:43;100410.86;;;20.37;50.78
76827;BME280;65788;52.284;20.890;2023-10-13T10:49:27;100403.30;;;20.37;50.77
76827;BME280;65788;52.284;20.890;2023-10-13T10:51:59;100395.27;;;20.36;50.98
76827;BME280;65788;52.284;20.890;2023-10-13T10:54:33;100390.55;;;20.36;51.03
76827;BME280;65788;52.284;20.890;2023-10-13T10:57:01;100382.66;;;20.35;51.02
76827;BME280;65788;52.284;20.890;2023-10-13T10:59:46;100386.88;;;20.33;51.13
76827;BME280;65788;52.284;20.890;2023-10-13T11:02:15;100382.02;;;20.34;51.32
76827;BME280;65788;52.284;20.890;2023-10-13T11:04:51;100374.76;;;20.34;51.32
76827;BME280;65788;52.284;20.890;2023-10-13T11:07:24;100376.79;;;20.33;51.31
76827;BME280;65788;52.284;20.890;2023-10-13T11:09:53;100378.05;;;20.35;51.36
76827;BME280;65788;52.284;20.890;2023-10-13T11:12:23;100378.27;;;20.35;51.71
76827;BME280;65788;52.284;20.890;2023-10-13T11:15:08;100372.39;;;20.35;51.36
76827;BME280;65788;52.284;20.890;2023-10-13T11:17:50;100360.09;;;20.35;51.52
76827;BME280;65788;52.284;20.890;2023-10-13T11:20:21;100355.63;;;20.36;51.54
76827;BME280;65788;52.284;20.890;2023-10-13T11:23:13;100348.89;;;20.35;51.45
76827;BME280;65788;52.284;20.890;2023-10-13T11:25:41;100350.15;;;20.37;51.69
76827;BME280;65788;52.284;20.890;2023-10-13T11:28:17;100340.83;;;20.37;51.70
76827;BME280;65788;52.284;20.890;2023-10-13T11:30:45;100345.54;;;20.36;51.69
76827;BME280;65788;52.284;20.890;2023-10-13T11:33:19;100338.81;;;20.37;51.54
76827;BME280;65788;52.284;20.890;2023-10-13T11:35:59;100330.02;;;20.36;51.73
76827;BME280;65788;52.284;20.890;2023-10-13T11:38:31;100326.16;;;20.36;51.83
76827;BME280;65788;52.284;20.890;2023-10-13T11:41:20;100325.19;;;20.36;51.79
76827;BME280;65788;52.284;20.890;2023-10-13T11:43:50;100325.49;;;20.35;51.84
76827;BME280;65788;52.284;20.890;2023-10-13T11:46:21;100320.21;;;20.36;51.70
76827;BME280;65788;52.284;20.890;2023-10-13T11:49:09;100319.89;;;20.36;51.90
76827;BME280;65788;52.284;20.890;2023-10-13T11:51:46;100316.83;;;20.35;51.98
76827;BME280;65788;52.284;20.890;2023-10-13T11:54:17;100316.44;;;20.35;51.97
76827;BME280;65788;52.284;20.890;2023-10-13T11:56:46;100316.67;;;20.36;51.87
76827;BME280;65788;52.284;20.890;2023-10-13T11:59:13;100312.66;;;20.36;52.09
76827;BME280;65788;52.284;20.890;2023-10-13T12:01:52;100309.28;;;20.36;52.06
76827;BME280;65788;52.284;20.890;2023-10-13T12:04:39;100304.66;;;20.36;52.25
76827;BME280;65788;52.284;20.890;2023-10-13T12:07:23;100300.16;;;20.38;52.07
76827;BME280;65788;52.284;20.890;2023-10-13T12:09:50;100296.23;;;20.39;52.05
76827;BME280;65788;52.284;20.890;2023-10-13T12:12:26;100297.71;;;20.38;52.19
76827;BME280;65788;52.284;20.890;2023-10-13T12:14:54;100297.55;;;20.40;52.07
76827;BME280;65788;52.284;20.890;2023-10-13T12:17:26;100295.51;;;20.40;52.09
76827;BME280;65788;52.284;20.890;2023-10-13T12:20:04;100293.48;;;20.41;52.07
76827;BME280;65788;52.284;20.890;2023-10-13T12:22:32;100290.69;;;20.43;52.10
76827;BME280;65788;52.284;20.890;2023-10-13T12:25:07;100283.98;;;20.42;52.17
76827;BME280;65788;52.284;20.890;2023-10-13T12:27:54;100277.87;;;20.42;52.03
76827;BME280;65788;52.284;20.890;2023-10-13T12:30:24;100267.44;;;20.42;52.21
76827;BME280;65788;52.284;20.890;2023-10-13T12:33:17;100259.61;;;20.43;52.25
76827;BME280;65788;52.284;20.890;2023-10-13T12:35:56;100256.39;;;20.43;52.29
76827;BME280;65788;52.284;20.890;2023-10-13T12:38:40;100253.69;;;20.44;52.29
76827;BME280;65788;52.284;20.890;2023-10-13T12:41:18;100251.77;;;20.44;52.26
76827;BME280;65788;52.284;20.890;2023-10-13T12:44:06;100242.48;;;20.45;52.26
76827;BME280;65788;52.284;20.890;2023-10-13T12:46:53;100243.98;;;20.45;52.35
76827;BME280;65788;52.284;20.890;2023-10-13T12:49:40;100243.85;;;20.44;52.21
76827;BME280;65788;52.284;20.890;2023-10-13T12:52:10;100244.49;;;20.45;52.37
76827;BME280;65788;52.284;20.890;2023-10-13T12:54:47;100241.85;;;20.44;52.61
76827;BME280;65788;52.284;20.890;2023-10-13T12:57:27;100237.25;;;20.42;52.85
76827;BME280;65788;52.284;20.890;2023-10-13T12:59:55;100238.86;;;20.44;53.00
76827;BME280;65788;52.284;20.890;2023-10-13T13:02:24;100233.36;;;20.42;52.96
76827;BME280;65788;52.284;20.890;2023-10-13T13:04:55;100235.40;;;20.43;52.97
76827;BME280;65788;52.284;20.890;2023-10-13T13:07:40;100235.53;;;20.43;53.31
76827;BME280;65788;52.284;20.890;2023-10-13T13:10:15;100235.36;;;20.43;53.31
76827;BME280;65788;52.284;20.890;2023-10-13T13:12:45;100238.44;;;20.43;53.48
76827;BME280;65788;52.284;20.890;2023-10-13T13:15:14;100237.83;;;20.43;53.46
76827;BME280;65788;52.284;20.890;2023-10-13T13:17:41;100232.79;;;20.42;53.48
76827;BME280;65788;52.284;20.890;2023-10-13T13:20:09;100227.27;;;20.43;53.43
76827;BME280;65788;52.284;20.890;2023-10-13T13:22:54;100223.60;;;20.43;53.43
76827;BME280;65788;52.284;20.890;2023-10-13T13:25:21;100225.02;;;20.42;53.37
76827;BME280;65788;52.284;20.890;2023-10-13T13:27:58;100223.05;;;20.41;53.20
76827;BME280;65788;52.284;20.890;2023-10-13T13:30:33;100219.28;;;20.42;53.18
76827;BME280;65788;52.284;20.890;2023-10-13T13:33:01;100214.40;;;20.43;53.15
76827;BME280;65788;52.284;20.890;2023-10-13T13:35:39;100213.35;;;20.42;53.18
76827;BME280;65788;52.284;20.890;2023-10-13T13:38:09;100203.57;;;20.44;53.46
76827;BME280;65788;52.284;20.890;2023-10-13T13:41:13;100195.02;;;20.45;53.67
76827;BME280;65788;52.284;20.890;2023-10-13T13:43:49;100184.38;;;20.44;53.59
76827;BME280;65788;52.284;20.890;2023-10-13T13:46:17;100185.64;;;20.43;53.67